sensor_id;sensor_type;location;lat;lon;timestamp;temperature;humidity
51579;DHT22;47998;53.242;6.386;2022-09-25T00:01:07;5.90;99.90
51579;DHT22;47998;53.242;6.386;2022-09-25T00:03:33;5.90;99.90
51579;DHT22;47998;53.242;6.386;2022-09-25T00:08:29;5.90;99.90
51579;DHT22;47998;53.242;6.386;2022-09-25T00:10:55;5.80;99.90
51579;DHT22;47998;53.242;6.386;2022-09-25T00:13:21;5.90;99.90
51579;DHT22;47998;53.242;6.386;2022-09-25T00:15:52;5.90;99.90
51579;DHT22;47998;53.242;6.386;2022-09-25T00:18:19;5.90;99.90
51579;DHT22;47998;53.242;6.386;2022-09-25T00:21:04;5.90;99.90
51579;DHT22;47998;53.242;6.386;2022-09-25T00:23:30;5.70;99.90
51579;DHT22;47998;53.242;6.386;2022-09-25T00:25:56;5.80;99.90
51579;DHT22;47998;53.242;6.386;2022-09-25T00:28:25;5.80;99.90
51579;DHT22;47998;53.242;6.386;2022-09-25T00:30:52;5.70;99.90
51579;DHT22;47998;53.242;6.386;2022-09-25T00:33:18;5.70;99.90
51579;DHT22;47998;53.242;6.386;2022-09-25T00:35:43;5.70;99.90
51579;DHT22;47998;53.242;6.386;2022-09-25T00:38:09;6.00;99.90
51579;DHT22;47998;53.242;6.386;2022-09-25T00:40:35;6.10;99.90
51579;DHT22;47998;53.242;6.386;2022-09-25T00:43:00;6.20;99.90
51579;DHT22;47998;53.242;6.386;2022-09-25T00:45:26;6.10;99.90
51579;DHT22;47998;53.242;6.386;2022-09-25T00:47:56;6.20;99.90
51579;DHT22;47998;53.242;6.386;2022-09-25T00:50:35;6.50;99.90
51579;DHT22;47998;53.242;6.386;2022-09-25T00:53:11;6.80;99.90
51579;DHT22;47998;53.242;6.386;2022-09-25T00:55:39;7.10;99.90
51579;DHT22;47998;53.242;6.386;2022-09-25T00:58:06;7.10;99.90
51579;DHT22;47998;53.242;6.386;2022-09-25T01:00:32;7.10;99.90
51579;DHT22;47998;53.242;6.386;2022-09-25T01:02:58;6.90;99.90
51579;DHT22;47998;53.242;6.386;2022-09-25T01:05:28;6.90;99.90
51579;DHT22;47998;53.242;6.386;2022-09-25T01:07:57;6.70;99.90
51579;DHT22;47998;53.242;6.386;2022-09-25T01:10:25;6.60;99.90
51579;DHT22;47998;53.242;6.386;2022-09-25T01:12:53;6.60;99.90
51579;DHT22;47998;53.242;6.386;2022-09-25T01:15:25;6.40;99.90
51579;DHT22;47998;53.242;6.386;2022-09-25T01:31:17;6.40;99.90
51579;DHT22;47998;53.242;6.386;2022-09-25T01:33:54;6.50;99.90
51579;DHT22;47998;53.242;6.386;2022-09-25T01:36:28;6.20;99.90
51579;DHT22;47998;53.242;6.386;2022-09-25T01:42:16;6.40;99.90
51579;DHT22;47998;53.242;6.386;2022-09-25T01:44:45;6.00;99.90
51579;DHT22;47998;53.242;6.386;2022-09-25T01:47:17;6.20;99.90
51579;DHT22;47998;53.242;6.386;2022-09-25T01:49:54;6.10;99.90
51579;DHT22;47998;53.242;6.386;2022-09-25T01:52:27;5.80;99.90
51579;DHT22;47998;53.242;6.386;2022-09-25T01:55:02;6.00;99.90
51579;DHT22;47998;53.242;6.386;2022-09-25T01:57:41;5.80;99.90
51579;DHT22;47998;53.242;6.386;2022-09-25T02:00:15;5.70;99.90
51579;DHT22;47998;53.242;6.386;2022-09-25T02:02:55;5.50;99.90
51579;DHT22;47998;53.242;6.386;2022-09-25T02:05:28;5.60;99.90
51579;DHT22;47998;53.242;6.386;2022-09-25T02:08:06;5.60;99.90
51579;DHT22;47998;53.242;6.386;2022-09-25T02:10:42;5.50;99.90
51579;DHT22;47998;53.242;6.386;2022-09-25T02:13:12;5.60;99.90
51579;DHT22;47998;53.242;6.386;2022-09-25T02:15:56;5.60;99.90
51579;DHT22;47998;53.242;6.386;2022-09-25T02:18:25;5.50;99.90
51579;DHT22;47998;53.242;6.386;2022-09-25T02:21:35;5.50;99.90
51579;DHT22;47998;53.242;6.386;2022-09-25T02:26:49;5.30;99.90
51579;DHT22;47998;53.242;6.386;2022-09-25T02:29:16;5.30;99.90
51579;DHT22;47998;53.242;6.386;2022-09-25T02:31:53;5.30;99.90
51579;DHT22;47998;53.242;6.386;2022-09-25T02:34:21;5.30;99.90
51579;DHT22;47998;53.242;6.386;2022-09-25T02:36:47;5.10;99.90
51579;DHT22;47998;53.242;6.386;2022-09-25T02:39:15;5.10;99.90
51579;DHT22;47998;53.242;6.386;2022-09-25T02:42:03;5.20;99.90
51579;DHT22;47998;53.242;6.386;2022-09-25T02:50:25;5.00;99.90
51579;DHT22;47998;53.242;6.386;2022-09-25T02:53:12;5.10;99.90
51579;DHT22;47998;53.242;6.386;2022-09-25T02:55:49;5.20;99.90
51579;DHT22;47998;53.242;6.386;2022-09-25T02:58:24;5.30;99.90
51579;DHT22;47998;53.242;6.386;2022-09-25T03:00:54;5.30;99.90
51579;DHT22;47998;53.242;6.386;2022-09-25T03:03:23;5.20;99.90
51579;DHT22;47998;53.242;6.386;2022-09-25T03:05:51;5.30;99.90
51579;DHT22;47998;53.242;6.386;2022-09-25T03:08:19;5.70;99.90
51579;DHT22;47998;53.242;6.386;2022-09-25T03:11:14;5.80;99.90
51579;DHT22;47998;53.242;6.386;2022-09-25T03:13:41;5.90;99.90
51579;DHT22;47998;53.242;6.386;2022-09-25T03:16:15;5.90;99.90
51579;DHT22;47998;53.242;6.386;2022-09-25T03:18:45;6.00;99.90
51579;DHT22;47998;53.242;6.386;2022-09-25T03:21:11;6.00;99.90
51579;DHT22;47998;53.242;6.386;2022-09-25T03:23:36;6.20;99.90
51579;DHT22;47998;53.242;6.386;2022-09-25T03:26:02;6.10;99.90
51579;DHT22;47998;53.242;6.386;2022-09-25T03:28:31;6.20;99.90
51579;DHT22;47998;53.242;6.386;2022-09-25T03:31:03;6.30;99.90
51579;DHT22;47998;53.242;6.386;2022-09-25T03:33:35;6.10;99.90
51579;DHT22;47998;53.242;6.386;2022-09-25T03:36:05;6.10;99.90
51579;DHT22;47998;53.242;6.386;2022-09-25T03:38:31;6.00;99.90
51579;DHT22;47998;53.242;6.386;2022-09-25T03:40:57;5.90;99.90
51579;DHT22;47998;53.242;6.386;2022-09-25T03:43:23;5.80;99.90
51579;DHT22;47998;53.242;6.386;2022-09-25T03:45:48;5.80;99.90
51579;DHT22;47998;53.242;6.386;2022-09-25T03:48:14;5.80;99.90
51579;DHT22;47998;53.242;6.386;2022-09-25T03:50:40;5.60;99.90
51579;DHT22;47998;53.242;6.386;2022-09-25T03:53:06;5.50;99.90
51579;DHT22;47998;53.242;6.386;2022-09-25T03:55:32;5.40;99.90
51579;DHT22;47998;53.242;6.386;2022-09-25T03:57:58;5.40;99.90
51579;DHT22;47998;53.242;6.386;2022-09-25T04:00:24;5.50;99.90
51579;DHT22;47998;53.242;6.386;2022-09-25T04:02:49;5.40;99.90
51579;DHT22;47998;53.242;6.386;2022-09-25T04:05:16;5.40;99.90
51579;DHT22;47998;53.242;6.386;2022-09-25T04:07:45;5.40;99.90
51579;DHT22;47998;53.242;6.386;2022-09-25T04:10:12;5.30;99.90
51579;DHT22;47998;53.242;6.386;2022-09-25T04:12:38;5.20;99.90
51579;DHT22;47998;53.242;6.386;2022-09-25T04:15:05;5.30;99.90
51579;DHT22;47998;53.242;6.386;2022-09-25T04:17:31;5.30;99.90
51579;DHT22;47998;53.242;6.386;2022-09-25T04:19:56;5.10;99.90
51579;DHT22;47998;53.242;6.386;2022-09-25T04:22:22;5.00;99.90
51579;DHT22;47998;53.242;6.386;2022-09-25T04:24:49;4.90;99.90
51579;DHT22;47998;53.242;6.386;2022-09-25T04:27:19;4.90;99.90
51579;DHT22;47998;53.242;6.386;2022-09-25T04:29:47;4.90;99.90
51579;DHT22;47998;53.242;6.386;2022-09-25T04:32:14;4.90;99.90
51579;DHT22;47998;53.242;6.386;2022-09-25T04:35:12;5.00;99.90
51579;DHT22;47998;53.242;6.386;2022-09-25T04:37:38;5.10;99.90
51579;DHT22;47998;53.242;6.386;2022-09-25T04:40:04;5.10;99.90
51579;DHT22;47998;53.242;6.386;2022-09-25T04:42:30;5.10;99.90
51579;DHT22;47998;53.242;6.386;2022-09-25T04:44:56;5.10;99.90
51579;DHT22;47998;53.242;6.386;2022-09-25T04:47:24;5.10;99.90
51579;DHT22;47998;53.242;6.386;2022-09-25T04:49:50;5.20;99.90
51579;DHT22;47998;53.242;6.386;2022-09-25T04:52:17;5.20;99.90
51579;DHT22;47998;53.242;6.386;2022-09-25T04:54:44;5.20;99.90
51579;DHT22;47998;53.242;6.386;2022-09-25T04:57:19;5.20;99.90
51579;DHT22;47998;53.242;6.386;2022-09-25T04:59:45;5.30;99.90
51579;DHT22;47998;53.242;6.386;2022-09-25T05:02:12;5.30;99.90
51579;DHT22;47998;53.242;6.386;2022-09-25T05:04:38;5.30;99.90
51579;DHT22;47998;53.242;6.386;2022-09-25T05:07:04;5.30;99.90
51579;DHT22;47998;53.242;6.386;2022-09-25T05:09:30;5.20;99.90
51579;DHT22;47998;53.242;6.386;2022-09-25T05:11:56;5.10;99.90
51579;DHT22;47998;53.242;6.386;2022-09-25T05:14:22;5.10;99.90
51579;DHT22;47998;53.242;6.386;2022-09-25T05:16:48;4.90;99.90
51579;DHT22;47998;53.242;6.386;2022-09-25T05:19:14;4.90;99.90
51579;DHT22;47998;53.242;6.386;2022-09-25T05:21:40;5.00;99.90
51579;DHT22;47998;53.242;6.386;2022-09-25T05:24:07;5.00;99.90
51579;DHT22;47998;53.242;6.386;2022-09-25T05:26:34;5.20;99.90
51579;DHT22;47998;53.242;6.386;2022-09-25T05:29:00;5.30;99.90
51579;DHT22;47998;53.242;6.386;2022-09-25T05:31:26;5.30;99.90
51579;DHT22;47998;53.242;6.386;2022-09-25T05:33:52;5.30;99.90
51579;DHT22;47998;53.242;6.386;2022-09-25T05:36:19;5.30;99.90
51579;DHT22;47998;53.242;6.386;2022-09-25T05:38:45;5.20;99.90
51579;DHT22;47998;53.242;6.386;2022-09-25T05:41:11;5.30;99.90
51579;DHT22;47998;53.242;6.386;2022-09-25T05:43:40;5.20;99.90
51579;DHT22;47998;53.242;6.386;2022-09-25T05:46:06;5.40;99.90
51579;DHT22;47998;53.242;6.386;2022-09-25T05:48:32;5.30;99.90
51579;DHT22;47998;53.242;6.386;2022-09-25T05:50:57;5.30;99.90
51579;DHT22;47998;53.242;6.386;2022-09-25T05:53:24;5.20;99.90
51579;DHT22;47998;53.242;6.386;2022-09-25T05:55:56;5.30;99.90
51579;DHT22;47998;53.242;6.386;2022-09-25T05:58:23;5.30;99.90
51579;DHT22;47998;53.242;6.386;2022-09-25T06:00:49;5.20;99.90
51579;DHT22;47998;53.242;6.386;2022-09-25T06:03:16;5.50;99.90
51579;DHT22;47998;53.242;6.386;2022-09-25T06:05:42;5.50;99.90
51579;DHT22;47998;53.242;6.386;2022-09-25T06:08:09;5.40;99.90
51579;DHT22;47998;53.242;6.386;2022-09-25T06:10:35;5.60;99.90
51579;DHT22;47998;53.242;6.386;2022-09-25T06:13:02;5.50;99.90
51579;DHT22;47998;53.242;6.386;2022-09-25T06:15:36;5.70;99.90
51579;DHT22;47998;53.242;6.386;2022-09-25T06:18:06;5.90;99.90
51579;DHT22;47998;53.242;6.386;2022-09-25T06:20:31;5.80;99.90
51579;DHT22;47998;53.242;6.386;2022-09-25T06:22:58;5.90;99.90
51579;DHT22;47998;53.242;6.386;2022-09-25T06:25:27;6.00;99.90
51579;DHT22;47998;53.242;6.386;2022-09-25T06:27:57;6.20;99.90
51579;DHT22;47998;53.242;6.386;2022-09-25T06:30:26;6.10;99.90
51579;DHT22;47998;53.242;6.386;2022-09-25T06:33:02;6.20;99.90
51579;DHT22;47998;53.242;6.386;2022-09-25T06:35:29;6.30;99.90
51579;DHT22;47998;53.242;6.386;2022-09-25T06:37:59;6.50;99.90
51579;DHT22;47998;53.242;6.386;2022-09-25T06:40:26;6.60;99.90
51579;DHT22;47998;53.242;6.386;2022-09-25T06:45:22;6.90;99.90
51579;DHT22;47998;53.242;6.386;2022-09-25T06:47:47;6.90;99.90
51579;DHT22;47998;53.242;6.386;2022-09-25T06:50:13;7.30;99.90
51579;DHT22;47998;53.242;6.386;2022-09-25T06:52:45;7.30;99.90
51579;DHT22;47998;53.242;6.386;2022-09-25T06:55:11;7.60;99.90
51579;DHT22;47998;53.242;6.386;2022-09-25T06:57:36;7.60;99.90
51579;DHT22;47998;53.242;6.386;2022-09-25T07:00:04;7.80;99.90
51579;DHT22;47998;53.242;6.386;2022-09-25T07:02:30;8.00;99.90
51579;DHT22;47998;53.242;6.386;2022-09-25T07:05:14;8.10;99.90
51579;DHT22;47998;53.242;6.386;2022-09-25T07:07:43;8.50;99.90
51579;DHT22;47998;53.242;6.386;2022-09-25T07:10:10;8.80;99.90
51579;DHT22;47998;53.242;6.386;2022-09-25T07:12:35;9.00;99.90
51579;DHT22;47998;53.242;6.386;2022-09-25T07:15:03;9.70;99.90
51579;DHT22;47998;53.242;6.386;2022-09-25T07:17:29;10.00;99.90
51579;DHT22;47998;53.242;6.386;2022-09-25T07:19:55;10.00;99.90
51579;DHT22;47998;53.242;6.386;2022-09-25T07:22:20;10.00;99.90
51579;DHT22;47998;53.242;6.386;2022-09-25T07:24:46;10.30;99.90
51579;DHT22;47998;53.242;6.386;2022-09-25T07:27:12;10.10;99.90
51579;DHT22;47998;53.242;6.386;2022-09-25T07:29:37;10.40;99.90
51579;DHT22;47998;53.242;6.386;2022-09-25T07:32:03;10.60;99.90
51579;DHT22;47998;53.242;6.386;2022-09-25T07:34:29;10.70;99.90
51579;DHT22;47998;53.242;6.386;2022-09-25T07:36:56;10.50;99.90
51579;DHT22;47998;53.242;6.386;2022-09-25T07:39:22;10.90;99.90
51579;DHT22;47998;53.242;6.386;2022-09-25T07:41:47;10.90;99.90
51579;DHT22;47998;53.242;6.386;2022-09-25T07:44:13;11.00;99.90
51579;DHT22;47998;53.242;6.386;2022-09-25T07:46:41;10.70;99.90
51579;DHT22;47998;53.242;6.386;2022-09-25T07:49:07;10.90;99.90
51579;DHT22;47998;53.242;6.386;2022-09-25T07:51:33;11.00;99.90
51579;DHT22;47998;53.242;6.386;2022-09-25T07:53:59;10.80;99.90
51579;DHT22;47998;53.242;6.386;2022-09-25T07:56:25;10.80;99.90
51579;DHT22;47998;53.242;6.386;2022-09-25T07:58:52;10.90;99.90
51579;DHT22;47998;53.242;6.386;2022-09-25T08:01:18;11.20;99.90
51579;DHT22;47998;53.242;6.386;2022-09-25T08:03:44;11.20;99.90
51579;DHT22;47998;53.242;6.386;2022-09-25T08:06:11;10.90;99.90
51579;DHT22;47998;53.242;6.386;2022-09-25T08:08:41;11.00;99.90
51579;DHT22;47998;53.242;6.386;2022-09-25T08:11:12;11.10;99.90
51579;DHT22;47998;53.242;6.386;2022-09-25T08:13:39;11.40;99.90
51579;DHT22;47998;53.242;6.386;2022-09-25T08:16:14;11.30;99.90
51579;DHT22;47998;53.242;6.386;2022-09-25T08:18:42;11.20;99.90
51579;DHT22;47998;53.242;6.386;2022-09-25T08:21:09;11.20;99.90
51579;DHT22;47998;53.242;6.386;2022-09-25T08:23:39;11.60;99.90
51579;DHT22;47998;53.242;6.386;2022-09-25T08:26:05;11.10;99.90
51579;DHT22;47998;53.242;6.386;2022-09-25T08:28:31;11.10;99.90
51579;DHT22;47998;53.242;6.386;2022-09-25T08:31:00;11.20;99.90
51579;DHT22;47998;53.242;6.386;2022-09-25T08:33:31;11.30;99.90
51579;DHT22;47998;53.242;6.386;2022-09-25T08:36:01;11.10;99.90
51579;DHT22;47998;53.242;6.386;2022-09-25T08:38:28;11.10;99.90
51579;DHT22;47998;53.242;6.386;2022-09-25T08:41:04;11.60;99.90
51579;DHT22;47998;53.242;6.386;2022-09-25T08:43:34;11.70;99.90
51579;DHT22;47998;53.242;6.386;2022-09-25T08:46:04;11.80;99.90
51579;DHT22;47998;53.242;6.386;2022-09-25T08:48:56;12.00;99.90
51579;DHT22;47998;53.242;6.386;2022-09-25T08:51:50;12.10;99.90
51579;DHT22;47998;53.242;6.386;2022-09-25T08:54:22;12.30;99.90
51579;DHT22;47998;53.242;6.386;2022-09-25T08:56:51;12.40;99.90
51579;DHT22;47998;53.242;6.386;2022-09-25T08:59:36;12.70;99.90
51579;DHT22;47998;53.242;6.386;2022-09-25T09:02:34;12.90;99.90
51579;DHT22;47998;53.242;6.386;2022-09-25T09:05:01;13.30;99.90
51579;DHT22;47998;53.242;6.386;2022-09-25T09:07:38;13.60;99.90
51579;DHT22;47998;53.242;6.386;2022-09-25T09:12:52;14.90;99.90
51579;DHT22;47998;53.242;6.386;2022-09-25T09:15:42;15.50;99.90
51579;DHT22;47998;53.242;6.386;2022-09-25T09:20:54;17.00;99.90
51579;DHT22;47998;53.242;6.386;2022-09-25T09:23:33;18.00;99.90
51579;DHT22;47998;53.242;6.386;2022-09-25T09:26:13;18.90;99.90
51579;DHT22;47998;53.242;6.386;2022-09-25T09:31:26;18.70;99.90
51579;DHT22;47998;53.242;6.386;2022-09-25T09:37:15;17.90;99.90
51579;DHT22;47998;53.242;6.386;2022-09-25T09:39:55;17.90;99.90
51579;DHT22;47998;53.242;6.386;2022-09-25T09:45:12;19.30;90.70
51579;DHT22;47998;53.242;6.386;2022-09-25T09:50:38;20.10;1.00
51579;DHT22;47998;53.242;6.386;2022-09-25T09:56:09;19.00;75.20
51579;DHT22;47998;53.242;6.386;2022-09-25T09:58:55;18.50;63.10
51579;DHT22;47998;53.242;6.386;2022-09-25T10:01:30;18.10;1.00
51579;DHT22;47998;53.242;6.386;2022-09-25T10:04:07;17.50;1.00
51579;DHT22;47998;53.242;6.386;2022-09-25T10:06:37;17.40;8.80
51579;DHT22;47998;53.242;6.386;2022-09-25T10:09:03;17.20;1.00
51579;DHT22;47998;53.242;6.386;2022-09-25T10:11:30;17.20;1.00
51579;DHT22;47998;53.242;6.386;2022-09-25T10:13:58;17.30;1.00
51579;DHT22;47998;53.242;6.386;2022-09-25T10:16:26;17.50;99.90
51579;DHT22;47998;53.242;6.386;2022-09-25T10:21:32;17.90;99.90
51579;DHT22;47998;53.242;6.386;2022-09-25T10:24:02;17.80;99.90
51579;DHT22;47998;53.242;6.386;2022-09-25T10:26:38;17.70;99.90
51579;DHT22;47998;53.242;6.386;2022-09-25T10:31:56;17.20;1.00
51579;DHT22;47998;53.242;6.386;2022-09-25T10:34:22;17.10;1.00
51579;DHT22;47998;53.242;6.386;2022-09-25T10:36:51;17.20;98.40
51579;DHT22;47998;53.242;6.386;2022-09-25T10:41:48;17.20;1.00
51579;DHT22;47998;53.242;6.386;2022-09-25T10:44:27;17.10;1.00
51579;DHT22;47998;53.242;6.386;2022-09-25T10:46:56;17.20;1.00
51579;DHT22;47998;53.242;6.386;2022-09-25T10:49:45;16.90;1.00
51579;DHT22;47998;53.242;6.386;2022-09-25T10:52:44;16.60;65.30
51579;DHT22;47998;53.242;6.386;2022-09-25T10:55:21;16.60;93.80
51579;DHT22;47998;53.242;6.386;2022-09-25T10:58:04;16.50;77.80
51579;DHT22;47998;53.242;6.386;2022-09-25T11:00:42;16.60;28.20
51579;DHT22;47998;53.242;6.386;2022-09-25T11:03:28;16.70;99.90
51579;DHT22;47998;53.242;6.386;2022-09-25T11:06:07;16.80;95.00
51579;DHT22;47998;53.242;6.386;2022-09-25T11:08:47;16.80;98.00
51579;DHT22;47998;53.242;6.386;2022-09-25T11:11:20;16.50;1.00
51579;DHT22;47998;53.242;6.386;2022-09-25T11:13:49;16.70;85.50
51579;DHT22;47998;53.242;6.386;2022-09-25T11:16:15;16.90;41.60
51579;DHT22;47998;53.242;6.386;2022-09-25T11:19:04;17.20;88.80
51579;DHT22;47998;53.242;6.386;2022-09-25T11:21:39;17.70;99.90
51579;DHT22;47998;53.242;6.386;2022-09-25T11:24:27;18.40;99.90
51579;DHT22;47998;53.242;6.386;2022-09-25T11:27:22;18.70;99.90
51579;DHT22;47998;53.242;6.386;2022-09-25T11:30:16;19.20;99.90
51579;DHT22;47998;53.242;6.386;2022-09-25T11:33:05;19.80;99.90
51579;DHT22;47998;53.242;6.386;2022-09-25T11:47:39;20.10;99.90
51579;DHT22;47998;53.242;6.386;2022-09-25T11:50:13;20.90;99.90
51579;DHT22;47998;53.242;6.386;2022-09-25T11:58:35;21.00;5.30
51579;DHT22;47998;53.242;6.386;2022-09-25T12:01:53;20.20;31.70
51579;DHT22;47998;53.242;6.386;2022-09-25T12:28:08;18.90;1.00
51579;DHT22;47998;53.242;6.386;2022-09-25T12:36:16;20.90;99.90
51579;DHT22;47998;53.242;6.386;2022-09-25T12:38:51;21.10;99.90
51579;DHT22;47998;53.242;6.386;2022-09-25T12:41:32;21.30;99.90
51579;DHT22;47998;53.242;6.386;2022-09-25T12:46:43;21.80;56.10
51579;DHT22;47998;53.242;6.386;2022-09-25T12:49:17;21.60;34.10
51579;DHT22;47998;53.242;6.386;2022-09-25T12:51:50;21.60;34.10
51579;DHT22;47998;53.242;6.386;2022-09-25T12:57:26;21.50;1.00
51579;DHT22;47998;53.242;6.386;2022-09-25T12:59:58;21.70;1.00
51579;DHT22;47998;53.242;6.386;2022-09-25T13:02:42;21.50;1.00
51579;DHT22;47998;53.242;6.386;2022-09-25T13:05:38;21.00;1.00
51579;DHT22;47998;53.242;6.386;2022-09-25T13:10:42;20.60;1.00
51579;DHT22;47998;53.242;6.386;2022-09-25T13:13:12;20.60;27.90
51579;DHT22;47998;53.242;6.386;2022-09-25T13:15:47;20.80;1.00
51579;DHT22;47998;53.242;6.386;2022-09-25T13:18:26;20.90;6.70
51579;DHT22;47998;53.242;6.386;2022-09-25T13:20:55;21.30;1.00
51579;DHT22;47998;53.242;6.386;2022-09-25T13:23:27;21.00;1.00
51579;DHT22;47998;53.242;6.386;2022-09-25T13:26:10;20.80;1.00
51579;DHT22;47998;53.242;6.386;2022-09-25T13:28:40;20.40;1.00
51579;DHT22;47998;53.242;6.386;2022-09-25T13:31:21;20.10;99.90
51579;DHT22;47998;53.242;6.386;2022-09-25T13:33:50;20.00;1.00
51579;DHT22;47998;53.242;6.386;2022-09-25T13:42:03;17.80;99.90
51579;DHT22;47998;53.242;6.386;2022-09-25T13:50:18;16.50;99.90
51579;DHT22;47998;53.242;6.386;2022-09-25T14:00:25;18.20;94.60
51579;DHT22;47998;53.242;6.386;2022-09-25T14:02:53;18.00;75.00
51579;DHT22;47998;53.242;6.386;2022-09-25T14:05:28;17.80;99.90
51579;DHT22;47998;53.242;6.386;2022-09-25T14:08:10;17.50;99.90
51579;DHT22;47998;53.242;6.386;2022-09-25T14:10:46;17.40;99.90
51579;DHT22;47998;53.242;6.386;2022-09-25T14:13:14;17.20;99.90
51579;DHT22;47998;53.242;6.386;2022-09-25T14:15:41;17.30;99.90
51579;DHT22;47998;53.242;6.386;2022-09-25T14:18:17;17.50;99.90
51579;DHT22;47998;53.242;6.386;2022-09-25T14:20:47;17.90;57.80
51579;DHT22;47998;53.242;6.386;2022-09-25T14:25:39;18.10;1.00
51579;DHT22;47998;53.242;6.386;2022-09-25T14:28:26;18.10;1.00
51579;DHT22;47998;53.242;6.386;2022-09-25T14:31:16;18.10;1.00
51579;DHT22;47998;53.242;6.386;2022-09-25T14:39:23;18.20;1.00
51579;DHT22;47998;53.242;6.386;2022-09-25T14:45:20;18.20;1.00
51579;DHT22;47998;53.242;6.386;2022-09-25T14:47:50;18.10;1.00
51579;DHT22;47998;53.242;6.386;2022-09-25T14:50:24;17.90;1.00
51579;DHT22;47998;53.242;6.386;2022-09-25T14:52:55;17.90;1.00
51579;DHT22;47998;53.242;6.386;2022-09-25T14:55:25;18.10;1.00
51579;DHT22;47998;53.242;6.386;2022-09-25T14:57:54;18.10;1.00
51579;DHT22;47998;53.242;6.386;2022-09-25T15:00:23;18.50;39.70
51579;DHT22;47998;53.242;6.386;2022-09-25T15:02:52;18.70;1.00
51579;DHT22;47998;53.242;6.386;2022-09-25T15:07:51;18.30;1.00
51579;DHT22;47998;53.242;6.386;2022-09-25T15:10:35;18.40;1.00
51579;DHT22;47998;53.242;6.386;2022-09-25T15:13:06;18.40;1.00
51579;DHT22;47998;53.242;6.386;2022-09-25T15:15:34;17.70;1.00
51579;DHT22;47998;53.242;6.386;2022-09-25T15:18:01;17.00;28.00
51579;DHT22;47998;53.242;6.386;2022-09-25T15:20:31;16.30;99.90
51579;DHT22;47998;53.242;6.386;2022-09-25T15:25:38;15.20;99.90
51579;DHT22;47998;53.242;6.386;2022-09-25T15:28:07;14.80;1.00
51579;DHT22;47998;53.242;6.386;2022-09-25T15:30:36;14.50;1.00
51579;DHT22;47998;53.242;6.386;2022-09-25T15:33:04;14.20;1.00
51579;DHT22;47998;53.242;6.386;2022-09-25T15:35:29;14.00;1.00
51579;DHT22;47998;53.242;6.386;2022-09-25T15:38:14;13.80;99.90
51579;DHT22;47998;53.242;6.386;2022-09-25T15:40:53;13.70;99.90
51579;DHT22;47998;53.242;6.386;2022-09-25T15:43:19;13.60;99.90
51579;DHT22;47998;53.242;6.386;2022-09-25T15:48:57;13.60;1.00
51579;DHT22;47998;53.242;6.386;2022-09-25T15:51:27;13.50;1.00
51579;DHT22;47998;53.242;6.386;2022-09-25T15:53:57;13.60;99.90
51579;DHT22;47998;53.242;6.386;2022-09-25T15:56:26;13.60;1.00
51579;DHT22;47998;53.242;6.386;2022-09-25T15:58:59;13.60;1.00
51579;DHT22;47998;53.242;6.386;2022-09-25T16:01:28;13.60;1.00
51579;DHT22;47998;53.242;6.386;2022-09-25T16:04:19;13.70;1.00
51579;DHT22;47998;53.242;6.386;2022-09-25T16:09:49;13.60;1.00
51579;DHT22;47998;53.242;6.386;2022-09-25T16:12:28;13.60;1.00
51579;DHT22;47998;53.242;6.386;2022-09-25T16:14:55;13.60;29.50
51579;DHT22;47998;53.242;6.386;2022-09-25T16:17:39;13.50;1.00
51579;DHT22;47998;53.242;6.386;2022-09-25T16:22:54;13.40;1.00
51579;DHT22;47998;53.242;6.386;2022-09-25T16:25:33;13.40;1.00
51579;DHT22;47998;53.242;6.386;2022-09-25T16:28:17;13.30;1.00
51579;DHT22;47998;53.242;6.386;2022-09-25T16:33:28;13.10;99.90
51579;DHT22;47998;53.242;6.386;2022-09-25T16:35:59;13.00;99.90
51579;DHT22;47998;53.242;6.386;2022-09-25T16:38:32;12.90;99.90
51579;DHT22;47998;53.242;6.386;2022-09-25T16:41:05;12.90;99.90
51579;DHT22;47998;53.242;6.386;2022-09-25T16:43:31;12.90;99.90
51579;DHT22;47998;53.242;6.386;2022-09-25T16:46:02;12.90;1.00
51579;DHT22;47998;53.242;6.386;2022-09-25T16:48:35;12.80;1.00
51579;DHT22;47998;53.242;6.386;2022-09-25T16:51:04;12.80;99.90
51579;DHT22;47998;53.242;6.386;2022-09-25T16:53:34;12.70;99.90
51579;DHT22;47998;53.242;6.386;2022-09-25T16:56:00;12.70;99.90
51579;DHT22;47998;53.242;6.386;2022-09-25T16:58:25;12.70;99.90
51579;DHT22;47998;53.242;6.386;2022-09-25T17:00:51;12.70;99.90
51579;DHT22;47998;53.242;6.386;2022-09-25T17:03:17;12.70;99.90
51579;DHT22;47998;53.242;6.386;2022-09-25T17:05:42;12.80;99.90
51579;DHT22;47998;53.242;6.386;2022-09-25T17:08:19;13.00;99.90
51579;DHT22;47998;53.242;6.386;2022-09-25T17:10:50;13.20;1.00
51579;DHT22;47998;53.242;6.386;2022-09-25T17:13:20;13.20;1.00
51579;DHT22;47998;53.242;6.386;2022-09-25T17:15:47;13.20;99.90
51579;DHT22;47998;53.242;6.386;2022-09-25T17:18:18;13.10;99.90
51579;DHT22;47998;53.242;6.386;2022-09-25T17:20:44;13.10;99.90
51579;DHT22;47998;53.242;6.386;2022-09-25T17:23:10;13.00;99.90
51579;DHT22;47998;53.242;6.386;2022-09-25T17:25:42;12.80;99.90
51579;DHT22;47998;53.242;6.386;2022-09-25T17:28:10;12.60;99.90
51579;DHT22;47998;53.242;6.386;2022-09-25T17:30:37;12.30;1.00
51579;DHT22;47998;53.242;6.386;2022-09-25T17:33:04;12.10;1.00
51579;DHT22;47998;53.242;6.386;2022-09-25T17:35:36;11.90;99.90
51579;DHT22;47998;53.242;6.386;2022-09-25T17:38:03;11.70;99.90
51579;DHT22;47998;53.242;6.386;2022-09-25T17:40:29;11.60;1.00
51579;DHT22;47998;53.242;6.386;2022-09-25T17:42:57;11.40;99.90
51579;DHT22;47998;53.242;6.386;2022-09-25T17:45:37;11.30;99.90
51579;DHT22;47998;53.242;6.386;2022-09-25T17:48:07;11.10;99.90
51579;DHT22;47998;53.242;6.386;2022-09-25T17:50:33;11.10;99.90
51579;DHT22;47998;53.242;6.386;2022-09-25T17:53:01;11.00;99.90
51579;DHT22;47998;53.242;6.386;2022-09-25T17:55:28;10.90;99.90
51579;DHT22;47998;53.242;6.386;2022-09-25T17:57:54;10.70;1.00
51579;DHT22;47998;53.242;6.386;2022-09-25T18:00:20;10.60;1.00
51579;DHT22;47998;53.242;6.386;2022-09-25T18:02:45;10.30;1.00
51579;DHT22;47998;53.242;6.386;2022-09-25T18:05:16;10.10;74.30
51579;DHT22;47998;53.242;6.386;2022-09-25T18:07:42;10.00;99.90
51579;DHT22;47998;53.242;6.386;2022-09-25T18:10:10;10.20;99.90
51579;DHT22;47998;53.242;6.386;2022-09-25T18:12:36;10.40;1.00
51579;DHT22;47998;53.242;6.386;2022-09-25T18:15:02;10.60;1.00
51579;DHT22;47998;53.242;6.386;2022-09-25T18:17:27;10.70;99.90
51579;DHT22;47998;53.242;6.386;2022-09-25T18:19:53;10.80;99.90
51579;DHT22;47998;53.242;6.386;2022-09-25T18:22:37;10.80;99.90
51579;DHT22;47998;53.242;6.386;2022-09-25T18:25:03;10.90;99.90
51579;DHT22;47998;53.242;6.386;2022-09-25T18:27:32;10.90;99.90
51579;DHT22;47998;53.242;6.386;2022-09-25T18:29:58;10.80;99.90
51579;DHT22;47998;53.242;6.386;2022-09-25T18:32:24;10.80;99.90
51579;DHT22;47998;53.242;6.386;2022-09-25T18:34:50;10.80;99.90
51579;DHT22;47998;53.242;6.386;2022-09-25T18:37:15;10.80;99.90
51579;DHT22;47998;53.242;6.386;2022-09-25T18:39:41;10.80;99.90
51579;DHT22;47998;53.242;6.386;2022-09-25T18:42:09;10.70;99.90
51579;DHT22;47998;53.242;6.386;2022-09-25T18:44:34;10.70;99.90